AKDT,Max TemperatureF,Mean TemperatureF,Min TemperatureF,Max Dew PointF,MeanDew PointF,Min DewpointF,Max Humidity, Mean Humidity, Min Humidity, Max Sea Level PressureIn, Mean Sea Level PressureIn, Min Sea Level PressureIn, Max VisibilityMiles, Mean VisibilityMiles, Min VisibilityMiles, Max Wind SpeedMPH, Mean Wind SpeedMPH, Max Gust SpeedMPH,PrecipitationIn, CloudCover, Events, WindDirDegrees
2013-5-1,43,31,19,40,18,9,93,77,47,30.34,29.80,29.71,10,4,1,28,6,20,0.39,8,Rain-Snow,329
2013-5-2,48,32,17,46,13,7,95,64,38,30.53,29.90,29.77,10,6,2,13,6,,0.28,6,Rain-Snow,327
2013-5-3,54,38,21,46,21,16,95,80,59,30.57,29.94,29.85,10,3,0,12,5,20,0.00,8,Fog-Rain-Snow,318
2013-5-4,62,44,25,48,21,15,88,67,43,30.45,30.01,29.93,10,10,9,8,4,,0.00,8,,321
2013-5-5,64,47,25,48,14,7,82,47,27,30.17,30.12,30.02,10,10,10,10,4,17,0.00,2,,257
2013-5-6,60,38,17,47,15,8,85,47,27,30.22,30.16,29.98,10,10,10,10,3,17,0.00,0,,273
2013-5-7,64,42,21,40,17,10,78,45,17,30.27,30.23,30.03,10,10,10,12,3,20,0.00,0,,280
2013-5-8,66,44,21,42,19,13,90,48,24,30.34,30.27,30.06,10,10,10,8,2,,0.00,1,,282
2013-5-9,55,48,37,45,23,17,100,54,24,30.36,30.28,30.20,10,10,1,14,3,,0.00,0,,88
2013-5-10,57,50,39,45,23,11,95,45,16,30.22,30.12,29.96,10,10,3,8,2,,0.00,1,,301
2013-5-11,57,52,45,49,27,21,95,48,26,30.00,29.81,29.70,10,10,9,21,3,,0.31,7,Rain,298
2013-5-12,51,44,36,49,26,23,95,53,33,29.70,29.60,29.49,10,10,5,13,4,23,0.00,4,Rain,269
2013-5-13,50,36,23,47,11,0,95,46,29,29.81,29.69,29.60,10,10,3,17,10,21,0.16,3,Rain,282
2013-5-14,50,40,30,46,16,9,90,48,28,29.97,29.71,29.64,10,10,10,12,4,,0.28,3,Rain,308
2013-5-15,50,44,39,48,20,9,95,50,20,30.03,29.70,29.62,10,9,2,10,2,,0.08,2,Rain,149
2013-5-16,57,42,28,47,25,19,100,51,32,30.02,29.59,29.42,10,10,10,17,6,26,0.00,3,,148
2013-5-17,53,40,27,48,26,21,95,73,55,29.87,29.58,29.42,10,7,1,14,7,24,0.16,8,Rain-Snow,278
2013-5-18,54,39,24,47,11,1,95,46,31,30.32,29.99,29.71,10,10,7,14,8,21,0.35,5,Rain,271
2013-5-19,51,36,21,37,13,7,76,40,22,30.58,30.47,30.26,10,10,10,10,3,,0.00,1,,270
2013-5-20,55,40,27,37,17,8,85,41,16,30.63,30.52,30.16,10,10,10,12,4,,0.00,1,Rain,147
2013-5-21,64,54,45,37,18,12,69,34,15,30.45,30.28,29.93,10,10,10,15,3,,0.00,0,,101
2013-5-22,68,49,30,41,24,17,79,37,19,30.13,30.04,29.92,10,10,10,15,4,23,0.00,1,,196
2013-5-23,70,62,53,45,36,26,67,47,27,30.12,30.06,29.88,10,10,10,9,5,,0.02,7,Rain,239
2013-5-24,69,54,39,45,37,31,93,54,26,30.14,30.06,29.94,10,10,10,9,3,,0.00,3,,346
2013-5-25,73,60,48,48,33,22,95,44,16,30.06,29.92,29.83,10,10,10,13,3,24,0.01,1,Rain,183
2013-5-26,75,62,48,45,32,24,85,41,17,30.00,29.84,29.77,10,10,10,8,2,,0.00,1,,133
2013-5-27,80,60,46,52,36,30,95,40,18,29.86,29.80,29.64,10,10,10,12,2,,0.02,0,,115
2013-5-28,82,60,50,50,37,28,95,42,14,29.78,29.72,29.63,10,10,5,9,2,16,0.08,1,Rain,23
2013-5-29,82,65,49,49,35,24,90,40,12,29.83,29.69,29.65,10,10,10,10,3,17,0.02,1,,337
2013-5-30,84,64,46,49,36,25,95,42,12,30.13,29.81,29.71,10,10,4,8,2,,0.24,1,Rain,321
2013-5-31,81,64,48,49,38,21,95,42,11,30.29,29.98,29.87,10,10,4,14,3,21,0.08,2,Rain,285